Time;durP1;ratioP1;P1;durP2;ratioP2;P2;SDS_P1;SDS_P2;PMS_P1;PMS_P2;Temp;Humidity;BMP_temperature;BMP_pressure;BME280_temperature;BME280_humidity;BME280_pressure;Samples;Min_cycle;Max_cycle;Signal;HPM_P1;HPM_P2
2021/06/28 00:01:39;;;;;;;9.70;6.85;;;;;;;0.01;0.00;59042.03;10321797;28;20076;-61
2021/06/28 00:06:39;;;;;;;8.50;6.10;;;;;;;0.01;0.00;59042.03;10321767;28;20083;-60
2021/06/28 00:11:38;;;;;;;9.98;7.05;;;;;;;0.01;0.00;59042.03;10322523;28;20061;-60
2021/06/28 00:16:36;;;;;;;7.82;6.80;;;;;;;0.01;0.00;59042.03;10321034;28;20040;-61
2021/06/28 00:21:38;;;;;;;12.25;7.43;;;;;;;0.01;0.00;59042.03;10321999;28;20044;-61
2021/06/28 00:26:39;;;;;;;12.55;7.25;;;;;;;0.01;0.00;59042.03;10320696;28;20076;-61
2021/06/28 00:31:38;;;;;;;12.88;7.72;;;;;;;0.01;0.00;59042.03;10319685;28;20052;-60
2021/06/28 00:36:38;;;;;;;9.13;6.85;;;;;;;0.01;0.00;59042.03;10319003;28;20044;-60
2021/06/28 00:41:38;;;;;;;13.70;7.55;;;;;;;0.01;0.00;59042.03;10301843;28;20045;-60
2021/06/28 00:46:37;;;;;;;10.05;7.82;;;;;;;0.01;0.00;59042.03;10320586;28;20084;-61
2021/06/28 00:51:36;;;;;;;8.40;7.13;;;;;;;0.01;0.00;59042.03;10319776;28;20052;-61
2021/06/28 00:56:35;;;;;;;11.20;7.22;;;;;;;0.01;0.00;59042.03;10319490;28;20053;-61
2021/06/28 01:01:35;;;;;;;9.18;7.43;;;;;;;0.01;0.00;59042.03;10319850;28;20501;-60
2021/06/28 01:06:34;;;;;;;12.55;7.20;;;;;;;0.01;0.00;59042.03;10318790;28;20091;-61
2021/06/28 01:11:33;;;;;;;7.45;6.72;;;;;;;0.01;0.00;59042.03;10319634;28;20044;-61
2021/06/28 01:16:33;;;;;;;8.20;6.88;;;;;;;0.01;0.00;59042.03;10319435;28;20075;-61
2021/06/28 01:21:35;;;;;;;11.27;7.05;;;;;;;0.01;0.00;59042.03;10318249;28;20040;-60
2021/06/28 01:26:35;;;;;;;7.95;6.65;;;;;;;0.01;0.00;59042.03;10318246;28;20076;-60
2021/06/28 01:31:34;;;;;;;9.50;6.35;;;;;;;0.01;0.00;59042.03;10316944;28;20080;-60
2021/06/28 01:36:33;;;;;;;7.78;6.70;;;;;;;0.01;0.00;59042.03;10315311;28;20072;-61
2021/06/28 01:41:32;;;;;;;13.02;6.63;;;;;;;0.01;0.00;59042.03;10315540;28;20102;-61
2021/06/28 01:46:32;;;;;;;9.20;6.10;;;;;;;0.01;0.00;59042.03;10317551;28;20090;-60
2021/06/28 01:51:31;;;;;;;10.25;6.97;;;;;;;0.01;0.00;59042.03;10317147;28;20040;-61
2021/06/28 01:56:29;;;;;;;7.25;5.78;;;;;;;0.01;0.00;59042.03;10316213;28;20059;-61
2021/06/28 02:01:28;;;;;;;7.88;6.00;;;;;;;0.01;0.00;59042.03;10316673;28;20037;-61
2021/06/28 02:06:29;;;;;;;8.02;6.07;;;;;;;0.01;0.00;59042.03;10316770;28;20084;-61
2021/06/28 02:11:27;;;;;;;11.65;6.03;;;;;;;0.01;0.00;59042.03;10317944;28;20043;-60
2021/06/28 02:16:26;;;;;;;9.60;6.18;;;;;;;0.01;0.00;59042.03;10315888;28;20041;-61
2021/06/28 02:21:25;;;;;;;9.38;6.13;;;;;;;0.01;0.00;59042.03;10315207;28;20079;-61
2021/06/28 02:26:25;;;;;;;16.13;7.20;;;;;;;0.01;0.00;59042.03;10315379;28;20072;-61
2021/06/28 02:31:24;;;;;;;11.23;6.00;;;;;;;0.01;0.00;59042.03;10316160;28;20059;-61
2021/06/28 02:36:25;;;;;;;8.32;6.85;;;;;;;0.01;0.00;59042.03;10314932;28;20071;-58
2021/06/28 02:41:26;;;;;;;10.68;6.78;;;;;;;0.01;0.00;59042.03;10315760;28;20064;-58
2021/06/28 02:46:25;;;;;;;8.88;6.82;;;;;;;0.01;0.00;59042.03;10317090;28;20096;-58
2021/06/28 02:51:24;;;;;;;11.55;7.22;;;;;;;0.01;0.00;59042.03;10315226;28;20533;-58
2021/06/28 02:56:23;;;;;;;11.85;7.18;;;;;;;0.01;0.00;59042.03;10316397;28;20050;-58
2021/06/28 03:01:26;;;;;;;11.68;7.13;;;;;;;0.01;0.00;59042.03;10313460;28;20073;-58
2021/06/28 03:06:25;;;;;;;16.08;7.57;;;;;;;0.01;0.00;59042.03;10314850;28;20099;-58
2021/06/28 03:11:24;;;;;;;11.02;6.60;;;;;;;0.01;0.00;59042.03;10313642;28;20080;-58
2021/06/28 03:16:25;;;;;;;13.05;7.13;;;;;;;0.01;0.00;59042.03;10313185;28;20075;-58
2021/06/28 03:21:24;;;;;;;14.15;7.35;;;;;;;0.01;0.00;59042.03;10314719;28;20064;-58
2021/06/28 03:26:25;;;;;;;8.45;6.80;;;;;;;0.01;0.00;59042.03;10314463;28;21295;-53
2021/06/28 03:31:27;;;;;;;18.60;7.47;;;;;;;0.01;0.00;59042.03;10278862;28;20501;-58
2021/06/28 03:36:26;;;;;;;9.57;7.53;;;;;;;0.01;0.00;59042.03;10278343;28;20458;-58
2021/06/28 03:41:24;;;;;;;15.80;8.10;;;;;;;0.01;0.00;59042.03;10276452;28;20365;-57
2021/06/28 03:46:24;;;;;;;11.30;8.32;;;;;;;0.01;0.00;59042.03;10280453;28;20534;-58
2021/06/28 03:51:24;;;;;;;14.38;8.10;;;;;;;0.01;0.00;59042.03;10281285;28;20048;-58
2021/06/28 03:56:22;;;;;;;18.08;9.05;;;;;;;0.01;0.00;59042.03;10280050;28;20084;-57
2021/06/28 04:01:21;;;;;;;15.65;7.78;;;;;;;0.01;0.00;59042.03;10280730;28;20056;-58
2021/06/28 04:06:23;;;;;;;15.15;7.88;;;;;;;0.01;0.00;59042.03;10279991;28;20491;-57
2021/06/28 04:11:23;;;;;;;19.52;8.98;;;;;;;0.01;0.00;59042.03;10280513;28;20502;-57
2021/06/28 04:16:22;;;;;;;11.60;9.13;;;;;;;0.01;0.00;59042.03;10280382;28;20056;-58
2021/06/28 04:21:22;;;;;;;16.58;11.32;;;;;;;0.01;0.00;59042.03;10279848;28;20052;-58
2021/06/28 04:26:21;;;;;;;17.50;8.73;;;;;;;0.01;0.00;59042.03;10280599;28;20072;-58
2021/06/28 04:31:20;;;;;;;13.27;9.07;;;;;;;0.01;0.00;59042.03;10278728;28;20072;-57
2021/06/28 04:36:18;;;;;;;17.17;10.15;;;;;;;0.01;0.00;59042.03;10276780;28;20425;-57
2021/06/28 04:41:19;;;;;;;19.70;11.57;;;;;;;0.01;0.00;59042.03;10276415;28;20155;-58
2021/06/28 04:46:17;;;;;;;15.20;8.95;;;;;;;0.01;0.00;59042.03;10277458;28;20553;-57
2021/06/28 04:51:16;;;;;;;22.33;9.30;;;;;;;0.01;0.00;59042.03;10279639;28;20045;-57
2021/06/28 04:56:15;;;;;;;16.38;9.52;;;;;;;0.01;0.00;59042.03;10278504;28;20072;-58
2021/06/28 05:01:15;;;;;;;10.93;8.80;;;;;;;0.01;0.00;59042.03;10278467;28;20048;-58
2021/06/28 05:06:14;;;;;;;15.45;8.70;;;;;;;0.01;0.00;59042.03;10278620;28;20514;-58
2021/06/28 05:11:13;;;;;;;14.52;9.80;;;;;;;0.01;0.00;59042.03;10277428;28;20494;-58
2021/06/28 05:16:12;;;;;;;13.77;9.68;;;;;;;0.01;0.00;59042.03;10278428;28;20037;-58
2021/06/28 05:21:12;;;;;;;12.93;9.20;;;;;;;0.01;0.00;59042.03;10277378;28;20052;-57
2021/06/28 05:26:10;;;;;;;19.15;9.57;;;;;;;0.01;0.00;59042.03;10270294;28;20072;-57
2021/06/28 05:31:09;;;;;;;17.30;8.65;;;;;;;0.01;0.00;59042.03;10255414;28;20053;-57
2021/06/28 05:36:08;;;;;;;17.42;9.27;;;;;;;0.01;0.00;59042.03;10257008;28;20065;-57
2021/06/28 05:41:08;;;;;;;14.25;10.45;;;;;;;0.01;0.00;59042.03;10259171;28;20041;-57
2021/06/28 05:46:07;;;;;;;14.82;9.73;;;;;;;0.01;0.00;59042.03;10277199;28;20091;-57
2021/06/28 05:51:06;;;;;;;18.00;10.07;;;;;;;0.01;0.00;59042.03;10276328;28;20041;-57
2021/06/28 05:56:07;;;;;;;15.07;8.98;;;;;;;0.01;0.00;59042.03;10275769;28;20529;-58
2021/06/28 06:01:07;;;;;;;12.75;8.63;;;;;;;0.01;0.00;59042.03;10276185;28;20173;-58
2021/06/28 06:06:06;;;;;;;13.63;9.35;;;;;;;0.01;0.00;59042.03;10276450;28;20080;-58
2021/06/28 06:11:05;;;;;;;15.75;8.73;;;;;;;0.01;0.00;59042.03;10275951;28;20056;-58
2021/06/28 06:16:04;;;;;;;14.30;7.57;;;;;;;0.01;0.00;59042.03;10275826;28;20045;-58
2021/06/28 06:21:05;;;;;;;11.68;8.50;;;;;;;0.01;0.00;59042.03;10275897;28;20053;-58
2021/06/28 06:26:04;;;;;;;13.13;8.18;;;;;;;0.01;0.00;59042.03;10275058;28;20091;-57
2021/06/28 06:31:03;;;;;;;18.60;9.20;;;;;;;0.01;0.00;59042.03;10275068;28;20060;-58
2021/06/28 06:36:03;;;;;;;12.02;7.88;;;;;;;0.01;0.00;59042.03;10275241;28;20056;-58
2021/06/28 06:41:02;;;;;;;14.45;8.68;;;;;;;0.01;0.00;59042.03;10275714;28;20395;-58
2021/06/28 06:46:01;;;;;;;13.57;8.32;;;;;;;0.01;0.00;59042.03;10276030;28;20092;-58
2021/06/28 06:51:00;;;;;;;14.52;8.88;;;;;;;0.01;0.00;59042.03;10275511;28;20045;-58
2021/06/28 06:56:05;;;;;;;14.13;10.13;;;;;;;0.01;0.00;59042.03;10274920;28;20045;-58
2021/06/28 07:01:06;;;;;;;13.65;9.57;;;;;;;0.01;0.00;59042.03;10276378;28;20049;-58
2021/06/28 07:06:05;;;;;;;13.52;9.63;;;;;;;0.01;0.00;59042.03;10283005;28;20044;-58
2021/06/28 07:11:10;;;;;;;15.50;11.32;;;;;;;0.01;0.00;59042.03;10282605;28;20041;-58
2021/06/28 07:16:09;;;;;;;11.57;10.30;;;;;;;0.01;0.00;59042.03;10282552;28;20048;-58
2021/06/28 07:21:07;;;;;;;14.10;10.20;;;;;;;0.01;0.00;59042.03;10281760;28;20076;-59
2021/06/28 07:26:08;;;;;;;19.85;10.98;;;;;;;0.01;0.00;59042.03;10282987;28;20048;-58
2021/06/28 07:31:07;;;;;;;13.30;10.43;;;;;;;0.01;0.00;59042.03;10281937;28;20052;-58
2021/06/28 07:36:06;;;;;;;16.48;11.52;;;;;;;0.01;0.00;59042.03;10281586;28;20079;-58
2021/06/28 07:41:05;;;;;;;18.17;11.88;;;;;;;0.01;0.00;59042.03;10281310;28;20048;-58
2021/06/28 07:46:06;;;;;;;15.93;10.85;;;;;;;0.01;0.00;59042.03;10282340;28;20053;-58
2021/06/28 07:51:06;;;;;;;17.05;10.80;;;;;;;0.01;0.00;59042.03;10282102;28;20045;-58
2021/06/28 07:56:17;;;;;;;15.13;9.77;;;;;;;0.01;0.00;59042.03;10282036;28;20069;-59
2021/06/28 08:01:18;;;;;;;17.92;10.68;;;;;;;0.01;0.00;59042.03;10280889;28;20037;-59
2021/06/28 08:06:17;;;;;;;14.18;10.43;;;;;;;0.01;0.00;59042.03;10280456;28;20049;-59
2021/06/28 08:11:18;;;;;;;14.52;9.23;;;;;;;0.01;0.00;59042.03;10280236;28;20080;-59
2021/06/28 08:16:19;;;;;;;18.67;10.32;;;;;;;0.01;0.00;59042.03;10279591;28;20041;-59
2021/06/28 08:21:19;;;;;;;20.08;10.65;;;;;;;0.01;0.00;59042.03;10279383;28;20056;-59
2021/06/28 08:26:17;;;;;;;16.83;11.10;;;;;;;0.01;0.00;59042.03;10263326;28;20494;-58
2021/06/28 08:31:18;;;;;;;15.25;10.25;;;;;;;0.01;0.00;59042.03;10251541;28;20077;-59
2021/06/28 08:36:36;;;;;;;12.82;9.98;;;;;;;0.01;0.00;59042.03;10238846;28;20061;-58
2021/06/28 08:41:36;;;;;;;17.30;10.75;;;;;;;0.01;0.00;59042.03;10221254;28;20045;-59
2021/06/28 08:46:37;;;;;;;19.42;10.20;;;;;;;0.01;0.00;59042.03;10237821;28;20053;-59
2021/06/28 08:51:36;;;;;;;12.68;11.02;;;;;;;0.01;0.00;59042.03;10238811;28;20045;-59
2021/06/28 08:56:37;;;;;;;12.40;9.50;;;;;;;0.01;0.00;59042.03;10238940;28;20072;-59
2021/06/28 09:01:38;;;;;;;14.82;9.95;;;;;;;0.01;0.00;59042.03;10237779;28;20228;-58
2021/06/28 09:06:38;;;;;;;10.57;9.40;;;;;;;0.01;0.00;59042.03;10238589;28;20042;-59
2021/06/28 09:11:38;;;;;;;15.45;9.90;;;;;;;0.01;0.00;59042.03;10238234;28;20092;-58
2021/06/28 09:16:40;;;;;;;14.27;9.68;;;;;;;0.01;0.00;59042.03;10237636;28;20057;-58
2021/06/28 09:21:41;;;;;;;16.17;10.65;;;;;;;0.01;0.00;59042.03;10237494;28;20045;-58
2021/06/28 09:26:40;;;;;;;12.07;8.30;;;;;;;0.01;0.00;59042.03;10237872;28;20049;-58
2021/06/28 09:31:43;;;;;;;11.88;8.15;;;;;;;0.01;0.00;59042.03;10236523;28;20089;-58
2021/06/28 09:36:46;;;;;;;14.25;8.30;;;;;;;0.01;0.00;59042.03;10236774;28;20080;-58
2021/06/28 09:41:45;;;;;;;9.37;7.90;;;;;;;0.01;0.00;59042.03;10236989;28;20483;-58
2021/06/28 09:46:45;;;;;;;16.92;9.18;;;;;;;0.01;0.00;59042.03;10236148;28;20049;-58
2021/06/28 09:51:46;;;;;;;15.70;11.02;;;;;;;0.01;0.00;59042.03;10236377;28;20073;-58
2021/06/28 09:56:46;;;;;;;12.55;7.88;;;;;;;0.01;0.00;59042.03;10235480;28;20041;-58
2021/06/28 10:01:47;;;;;;;10.20;9.25;;;;;;;0.01;0.00;59042.03;10235706;28;20041;-58
2021/06/28 10:06:52;;;;;;;11.88;9.52;;;;;;;0.01;0.00;59042.03;10235928;28;20049;-58
2021/06/28 10:11:52;;;;;;;12.93;7.45;;;;;;;0.01;0.00;59042.03;10235978;28;20073;-58
2021/06/28 10:16:56;;;;;;;8.32;7.45;;;;;;;0.01;0.00;59042.03;10235974;28;20041;-59
2021/06/28 10:21:55;;;;;;;8.77;7.65;;;;;;;0.01;0.00;59042.03;10235588;28;20045;-59
2021/06/28 10:26:54;;;;;;;7.85;7.15;;;;;;;0.01;0.00;59042.03;10234475;28;20041;-56
2021/06/28 10:31:55;;;;;;;7.90;7.10;;;;;;;0.01;0.00;59042.03;10235277;28;20191;-58
2021/06/28 10:36:57;;;;;;;9.15;7.80;;;;;;;0.01;0.00;59042.03;10234798;28;20045;-58
2021/06/28 10:41:56;;;;;;;16.90;7.93;;;;;;;0.01;0.00;59042.03;10235295;28;20069;-58
2021/06/28 10:46:57;;;;;;;14.07;7.60;;;;;;;0.01;0.00;59042.03;10235641;28;20053;-58
2021/06/28 10:51:56;;;;;;;9.07;7.30;;;;;;;0.01;0.00;59042.03;10234971;28;20076;-58
2021/06/28 10:56:56;;;;;;;12.55;7.80;;;;;;;0.01;0.00;59042.03;10234904;28;20042;-57
2021/06/28 11:02:04;;;;;;;7.90;6.72;;;;;;;0.01;0.00;59042.03;10216477;28;20525;-58
2021/06/28 11:07:09;;;;;;;10.80;6.47;;;;;;;0.01;0.00;59042.03;10234609;28;20088;-58
2021/06/28 11:12:21;;;;;;;7.97;7.07;;;;;;;0.01;0.00;59042.03;10234772;28;20483;-58
2021/06/28 11:17:24;;;;;;;9.13;6.97;;;;;;;0.01;0.00;59042.03;10233866;28;20061;-58
2021/06/28 11:22:44;;;;;;;17.02;14.70;;;;;;;0.01;0.00;59042.03;10234664;28;20084;-59
2021/06/28 11:27:45;;;;;;;12.10;9.20;;;;;;;0.01;0.00;59042.03;10232870;28;20053;-57
2021/06/28 11:33:01;;;;;;;13.10;8.90;;;;;;;0.01;0.00;59042.03;10233464;28;20052;-57
2021/06/28 11:38:21;;;;;;;8.80;7.25;;;;;;;0.01;0.00;59042.03;10215372;28;20060;-57
2021/06/28 11:43:43;;;;;;;17.58;15.60;;;;;;;0.01;0.00;59042.03;10233286;28;20053;-57
2021/06/28 11:48:47;;;;;;;9.95;8.68;;;;;;;0.01;0.00;59042.03;10236694;28;20537;-57
2021/06/28 11:53:57;;;;;;;8.00;7.22;;;;;;;0.01;0.00;59042.03;10240033;28;20325;-57
2021/06/28 11:58:59;;;;;;;7.20;5.40;;;;;;;0.01;0.00;59042.03;10239926;28;20541;-57
2021/06/28 12:04:02;;;;;;;9.68;4.68;;;;;;;0.01;0.00;59042.03;10221809;28;20045;-57
2021/06/28 12:09:09;;;;;;;7.47;5.40;;;;;;;0.01;0.00;59042.03;10239380;28;20091;-58
2021/06/28 12:14:08;;;;;;;9.43;6.35;;;;;;;0.01;0.00;59042.03;10239916;28;20049;-58
2021/06/28 12:19:11;;;;;;;7.25;6.30;;;;;;;0.01;0.00;59042.03;10239175;28;20045;-58
2021/06/28 12:24:13;;;;;;;9.88;6.57;;;;;;;0.01;0.00;59042.03;10221500;28;20415;-58
2021/06/28 12:29:29;;;;;;;8.95;5.75;;;;;;;0.01;0.00;59042.03;10238722;28;20103;-58
2021/06/28 12:34:29;;;;;;;11.05;5.15;;;;;;;0.01;0.00;59042.03;10239104;28;20388;-58
2021/06/28 12:39:29;;;;;;;6.90;5.93;;;;;;;0.01;0.00;59042.03;10239017;28;20045;-58
2021/06/28 12:44:28;;;;;;;10.05;6.40;;;;;;;0.01;0.00;59042.03;10238450;28;20104;-58
2021/06/28 12:49:29;;;;;;;6.68;5.97;;;;;;;0.01;0.00;59042.03;10238360;28;20077;-58
2021/06/28 12:54:28;;;;;;;8.05;5.65;;;;;;;0.01;0.00;59042.03;10237955;28;20112;-58
2021/06/28 12:59:34;;;;;;;13.02;5.55;;;;;;;0.01;0.00;59042.03;10237530;28;20041;-58
2021/06/28 13:04:35;;;;;;;11.52;5.82;;;;;;;0.01;0.00;59042.03;10237739;28;20049;-58
2021/06/28 13:09:35;;;;;;;10.35;4.90;;;;;;;0.01;0.00;59042.03;10237735;28;20080;-58
2021/06/28 13:14:37;;;;;;;9.30;6.20;;;;;;;0.01;0.00;59042.03;10237851;28;20048;-58
2021/06/28 13:19:37;;;;;;;13.13;5.83;;;;;;;0.01;0.00;59042.03;10237889;28;20442;-58
2021/06/28 13:24:37;;;;;;;9.15;5.25;;;;;;;0.01;0.00;59042.03;10237767;28;20320;-58
2021/06/28 13:29:39;;;;;;;8.48;4.30;;;;;;;0.01;0.00;59042.03;10236573;28;20073;-58
2021/06/28 13:34:47;;;;;;;9.90;6.18;;;;;;;0.01;0.00;59042.03;10236797;28;20485;-58
2021/06/28 13:39:49;;;;;;;5.35;4.85;;;;;;;0.01;0.00;59042.03;10236154;28;20115;-58
2021/06/28 13:45:15;;;;;;;8.70;4.83;;;;;;;0.01;0.00;59042.03;10236181;28;20080;-58
2021/06/28 13:50:17;;;;;;;7.75;4.75;;;;;;;0.01;0.00;59042.03;10190838;28;20089;-58
2021/06/28 13:55:17;;;;;;;5.80;4.40;;;;;;;0.01;0.00;59042.03;10235587;28;20431;-58
2021/06/28 14:00:18;;;;;;;7.63;4.78;;;;;;;0.01;0.00;59042.03;10234138;28;20513;-55
2021/06/28 14:05:18;;;;;;;9.25;5.85;;;;;;;0.01;0.00;59042.03;10255134;28;20095;-58
2021/06/28 14:10:17;;;;;;;6.20;4.90;;;;;;;0.01;0.00;59042.03;10235361;28;20080;-55
2021/06/28 14:15:18;;;;;;;6.57;5.82;;;;;;;0.01;0.00;59042.03;10214848;28;20081;-58
2021/06/28 14:20:20;;;;;;;10.05;5.80;;;;;;;0.01;0.00;59042.03;10233120;28;20088;-58
2021/06/28 14:25:20;;;;;;;16.92;8.15;;;;;;;0.01;0.00;59042.03;10233675;28;20529;-58
2021/06/28 14:30:21;;;;;;;8.18;5.68;;;;;;;0.01;0.00;59042.03;10235554;28;20037;-58
2021/06/28 14:35:22;;;;;;;8.55;6.05;;;;;;;0.01;0.00;59042.03;10235411;28;20053;-58
2021/06/28 14:40:21;;;;;;;6.28;4.75;;;;;;;0.01;0.00;59042.03;10235340;28;20045;-58
2021/06/28 14:45:19;;;;;;;17.20;15.40;;;;;;;0.01;0.00;59042.03;10234544;28;20061;-58
2021/06/28 14:50:18;;;;;;;7.97;6.10;;;;;;;0.01;0.00;59042.03;10234998;28;20077;-58
2021/06/28 14:55:18;;;;;;;12.55;6.13;;;;;;;0.01;0.00;59042.03;10234068;28;20054;-58
2021/06/28 15:00:19;;;;;;;5.47;4.97;;;;;;;0.01;0.00;59042.03;10235122;28;20112;-58
2021/06/28 15:05:18;;;;;;;7.72;6.05;;;;;;;0.01;0.00;59042.03;10234720;28;20088;-58
2021/06/28 15:10:17;;;;;;;10.55;5.43;;;;;;;0.01;0.00;59042.03;10234064;28;20589;-58
2021/06/28 15:15:17;;;;;;;8.00;5.30;;;;;;;0.01;0.00;59042.03;10236221;28;20041;-58
2021/06/28 15:20:16;;;;;;;6.20;5.03;;;;;;;0.01;0.00;59042.03;10271126;28;20477;-57
2021/06/28 15:25:17;;;;;;;6.57;4.82;;;;;;;0.01;0.00;59042.03;10277604;28;20079;-53
2021/06/28 15:30:19;;;;;;;14.15;5.05;;;;;;;0.01;0.00;59042.03;10272328;28;20076;-52
2021/06/28 15:35:19;;;;;;;7.25;5.28;;;;;;;0.01;0.00;59042.03;10280170;28;20045;-58
2021/06/28 15:40:18;;;;;;;8.45;4.80;;;;;;;0.01;0.00;59042.03;10278598;28;20069;-53
2021/06/28 15:45:21;;;;;;;10.07;6.25;;;;;;;0.01;0.00;59042.03;10306073;28;20442;-58
2021/06/28 15:50:21;;;;;;;5.22;4.72;;;;;;;0.01;0.00;59042.03;10321367;28;20060;-58
2021/06/28 15:55:21;;;;;;;5.55;4.20;;;;;;;0.01;0.00;59042.03;10321914;28;20437;-57
2021/06/28 16:00:25;;;;;;;5.47;4.75;;;;;;;0.01;0.00;59042.03;10315275;28;20486;-57
2021/06/28 16:05:24;;;;;;;6.78;6.07;;;;;;;0.01;0.00;59042.03;10317345;28;20072;-58
2021/06/28 16:10:24;;;;;;;7.10;5.65;;;;;;;0.01;0.00;59042.03;10321111;28;20072;-55
2021/06/28 16:15:25;;;;;;;10.55;9.45;;;;;;;0.01;0.00;59042.03;10320369;28;20512;-57
2021/06/28 16:20:23;;;;;;;7.25;5.57;;;;;;;0.01;0.00;59042.03;10319799;28;20441;-56
2021/06/28 16:25:22;;;;;;;5.05;4.65;;;;;;;0.01;0.00;59042.03;10318369;28;20076;-58
2021/06/28 16:30:21;;;;;;;6.07;5.30;;;;;;;0.01;0.00;59042.03;10320242;28;20112;-58
2021/06/28 16:35:21;;;;;;;5.70;4.18;;;;;;;0.01;0.00;59042.03;10316680;28;20160;-58
2021/06/28 16:40:24;;;;;;;6.13;4.78;;;;;;;0.01;0.00;59042.03;10316632;28;20059;-58
2021/06/28 16:45:23;;;;;;;8.90;5.63;;;;;;;0.01;0.00;59042.03;10314366;28;20064;-56
2021/06/28 16:50:23;;;;;;;5.13;4.63;;;;;;;0.01;0.00;59042.03;10310888;28;20091;-59
2021/06/28 16:55:22;;;;;;;5.63;4.28;;;;;;;0.01;0.00;59042.03;10310780;28;20079;-60
2021/06/28 17:00:21;;;;;;;6.93;4.75;;;;;;;0.01;0.00;59042.03;10309848;28;20064;-61
2021/06/28 17:05:20;;;;;;;7.15;4.40;;;;;;;0.01;0.00;59042.03;10293618;28;20060;-61
2021/06/28 17:10:26;;;;;;;5.57;4.30;;;;;;;0.01;0.00;59042.03;10316580;28;20075;-61
2021/06/28 17:15:25;;;;;;;5.53;3.88;;;;;;;0.01;0.00;59042.03;10318992;28;20037;-60
2021/06/28 17:20:24;;;;;;;10.00;5.80;;;;;;;0.01;0.00;59042.03;10278052;28;20045;-61
2021/06/28 17:25:22;;;;;;;7.22;5.80;;;;;;;0.01;0.00;59042.03;10277426;28;20076;-61
2021/06/28 17:30:23;;;;;;;29.95;19.48;;;;;;;0.01;0.00;59042.03;10277684;28;20052;-60
2021/06/28 17:35:22;;;;;;;7.40;5.25;;;;;;;0.01;0.00;59042.03;10294340;28;20040;-60
2021/06/28 17:40:21;;;;;;;4.95;4.45;;;;;;;0.01;0.00;59042.03;10313944;28;20060;-61
2021/06/28 17:45:20;;;;;;;9.07;7.32;;;;;;;0.01;0.00;59042.03;10316137;28;20063;-60
2021/06/28 17:50:20;;;;;;;6.18;4.80;;;;;;;0.01;0.00;59042.03;10313399;28;20072;-60
2021/06/28 17:55:19;;;;;;;7.80;6.43;;;;;;;0.01;0.00;59042.03;10317203;28;20040;-60
2021/06/28 18:00:19;;;;;;;5.28;3.97;;;;;;;0.01;0.00;59042.03;10317055;28;20044;-60
2021/06/28 18:05:17;;;;;;;4.97;4.28;;;;;;;0.01;0.00;59042.03;10316359;28;20087;-60
2021/06/28 18:10:17;;;;;;;5.95;3.78;;;;;;;0.01;0.00;59042.03;10311715;28;20078;-60
2021/06/28 18:15:16;;;;;;;4.75;4.20;;;;;;;0.01;0.00;59042.03;10317102;28;20078;-61
2021/06/28 18:20:19;;;;;;;7.43;4.00;;;;;;;0.01;0.00;59042.03;10312847;28;20562;-59
2021/06/28 18:25:20;;;;;;;4.97;3.88;;;;;;;0.01;0.00;59042.03;10308460;28;20068;-60
2021/06/28 18:30:19;;;;;;;5.60;3.58;;;;;;;0.01;0.00;59042.03;10310452;28;20072;-60
2021/06/28 18:35:18;;;;;;;6.13;3.67;;;;;;;0.01;0.00;59042.03;10308106;28;20077;-60
2021/06/28 18:40:21;;;;;;;6.00;4.38;;;;;;;0.01;0.00;59042.03;10302895;28;20053;-61
2021/06/28 18:45:20;;;;;;;5.18;4.18;;;;;;;0.01;0.00;59042.03;10311560;28;20084;-60
2021/06/28 18:50:19;;;;;;;4.45;3.92;;;;;;;0.01;0.00;59042.03;10310851;28;20068;-61
2021/06/28 18:55:18;;;;;;;5.28;3.85;;;;;;;0.01;0.00;59042.03;10313859;28;20486;-60
2021/06/28 19:00:24;;;;;;;7.18;4.07;;;;;;;0.01;0.00;59042.03;10323656;28;20039;-60
2021/06/28 19:05:33;;;;;;;4.38;3.83;;;;;;;0.01;0.00;59042.03;10318641;28;20060;-60
2021/06/28 19:10:38;;;;;;;4.30;3.40;;;;;;;0.01;0.00;59042.03;10320657;28;20071;-59
2021/06/28 19:15:38;;;;;;;5.47;4.07;;;;;;;0.01;0.00;59042.03;10316232;28;20079;-60
2021/06/28 19:20:37;;;;;;;9.63;3.88;;;;;;;0.01;0.00;59042.03;10321510;28;20476;-60
2021/06/28 19:25:36;;;;;;;7.78;4.43;;;;;;;0.01;0.00;59042.03;10319029;28;20075;-60
2021/06/28 19:30:34;;;;;;;8.98;4.50;;;;;;;0.01;0.00;59042.03;10313083;28;20060;-58
2021/06/28 19:35:35;;;;;;;6.97;4.07;;;;;;;0.01;0.00;59042.03;10316983;28;20466;-58
2021/06/28 19:40:33;;;;;;;6.30;4.35;;;;;;;0.01;0.00;59042.03;10321652;28;20036;-60
2021/06/28 19:45:32;;;;;;;6.28;4.05;;;;;;;0.01;0.00;59042.03;10321415;28;20090;-62
2021/06/28 19:50:32;;;;;;;4.60;3.85;;;;;;;0.01;0.00;59042.03;10321847;28;20075;-60
2021/06/28 19:55:32;;;;;;;7.20;3.70;;;;;;;0.01;0.00;59042.03;10312881;28;20477;-60
2021/06/28 20:00:33;;;;;;;8.30;4.55;;;;;;;0.01;0.00;59042.03;10320287;28;20048;-60
2021/06/28 20:05:32;;;;;;;7.03;4.22;;;;;;;0.01;0.00;59042.03;10318710;28;20077;-60
2021/06/28 20:10:32;;;;;;;4.93;4.25;;;;;;;0.01;0.00;59042.03;10316950;28;20464;-60
2021/06/28 20:15:31;;;;;;;5.72;4.53;;;;;;;0.01;0.00;59042.03;10320972;28;20523;-61
2021/06/28 20:20:30;;;;;;;4.93;3.83;;;;;;;0.01;0.00;59042.03;10317349;28;20060;-60
2021/06/28 20:25:29;;;;;;;5.25;3.92;;;;;;;0.01;0.00;59042.03;10298876;28;20064;-60
2021/06/28 20:30:30;;;;;;;7.13;4.20;;;;;;;0.01;0.00;59042.03;10298098;28;20513;-59
2021/06/28 20:35:29;;;;;;;5.45;4.95;;;;;;;0.01;0.00;59042.03;10309913;28;20064;-60
2021/06/28 20:40:28;;;;;;;4.07;3.60;;;;;;;0.01;0.00;59042.03;10280618;28;20071;-60
2021/06/28 20:45:27;;;;;;;6.50;4.78;;;;;;;0.01;0.00;59042.03;10303954;28;20103;-60
2021/06/28 20:50:27;;;;;;;6.60;4.32;;;;;;;0.01;0.00;59042.03;10312429;28;20076;-61
2021/06/28 20:55:27;;;;;;;5.68;4.40;;;;;;;0.01;0.00;59042.03;10317301;28;20079;-61
2021/06/28 21:00:26;;;;;;;5.35;4.65;;;;;;;0.01;0.00;59042.03;10317747;28;20071;-60
2021/06/28 21:05:25;;;;;;;5.50;4.57;;;;;;;0.01;0.00;59042.03;10316277;28;20110;-60
2021/06/28 21:10:25;;;;;;;9.00;4.60;;;;;;;0.01;0.00;59042.03;10318521;28;20055;-60
2021/06/28 21:15:24;;;;;;;6.05;3.88;;;;;;;0.01;0.00;59042.03;10319387;28;20098;-61
2021/06/28 21:20:23;;;;;;;5.25;4.63;;;;;;;0.01;0.00;59042.03;10318776;28;20068;-60
2021/06/28 21:25:21;;;;;;;6.57;5.32;;;;;;;0.01;0.00;59042.03;10318236;28;20053;-60
2021/06/28 21:30:22;;;;;;;7.40;4.18;;;;;;;0.01;0.00;59042.03;10314953;28;20080;-61
2021/06/28 21:35:21;;;;;;;11.13;4.78;;;;;;;0.01;0.00;59042.03;10316917;28;20434;-60
2021/06/28 21:40:20;;;;;;;5.97;4.40;;;;;;;0.01;0.00;59042.03;10318194;28;20044;-61
2021/06/28 21:45:18;;;;;;;7.78;4.50;;;;;;;0.01;0.00;59042.03;10316668;28;20556;-60
2021/06/28 21:50:19;;;;;;;7.68;5.35;;;;;;;0.01;0.00;59042.03;10315749;28;20053;-59
2021/06/28 21:55:18;;;;;;;7.07;4.45;;;;;;;0.01;0.00;59042.03;10316207;28;20103;-59
2021/06/28 22:00:20;;;;;;;9.75;4.85;;;;;;;0.01;0.00;59042.03;10317875;28;20040;-60
2021/06/28 22:05:21;;;;;;;4.95;4.32;;;;;;;0.01;0.00;59042.03;10317594;28;20083;-59
2021/06/28 22:10:20;;;;;;;7.75;5.18;;;;;;;0.01;0.00;59042.03;10314831;28;20068;-59
2021/06/28 22:15:19;;;;;;;5.05;4.55;;;;;;;0.01;0.00;59042.03;10314917;28;20087;-60
2021/06/28 22:20:23;;;;;;;6.95;4.53;;;;;;;0.01;0.00;59042.03;10315664;28;20450;-61
2021/06/28 22:25:23;;;;;;;6.85;5.03;;;;;;;0.01;0.00;59042.03;10315816;28;20068;-60
2021/06/28 22:30:23;;;;;;;8.35;4.45;;;;;;;0.01;0.00;59042.03;10314997;28;20068;-60
2021/06/28 22:35:22;;;;;;;10.82;5.10;;;;;;;0.01;0.00;59042.03;10312955;28;20080;-59
2021/06/28 22:40:21;;;;;;;7.13;4.78;;;;;;;0.01;0.00;59042.03;10316137;28;20052;-58
2021/06/28 22:45:21;;;;;;;8.35;4.57;;;;;;;0.01;0.00;59042.03;10316877;28;20064;-60
2021/06/28 22:50:19;;;;;;;6.57;5.20;;;;;;;0.01;0.00;59042.03;10315595;28;20528;-60
2021/06/28 22:55:18;;;;;;;5.40;4.88;;;;;;;0.01;0.00;59042.03;10316487;28;20476;-60
2021/06/28 23:00:18;;;;;;;9.45;5.22;;;;;;;0.01;0.00;59042.03;10315524;28;20490;-61
2021/06/28 23:05:18;;;;;;;8.05;5.30;;;;;;;0.01;0.00;59042.03;10315223;28;20080;-60
2021/06/28 23:10:17;;;;;;;10.65;5.30;;;;;;;0.01;0.00;59042.03;10315466;28;20048;-60
2021/06/28 23:15:17;;;;;;;5.97;5.22;;;;;;;0.01;0.00;59042.03;10316430;28;20068;-59
2021/06/28 23:20:15;;;;;;;4.95;4.43;;;;;;;0.01;0.00;59042.03;10315457;28;20072;-60
2021/06/28 23:25:16;;;;;;;7.68;4.90;;;;;;;0.01;0.00;59042.03;10315003;28;20494;-61
2021/06/28 23:30:15;;;;;;;7.78;4.82;;;;;;;0.01;0.00;59042.03;10315311;28;20049;-60
2021/06/28 23:35:14;;;;;;;7.60;5.18;;;;;;;0.01;0.00;59042.03;10314681;28;20087;-60
2021/06/28 23:40:14;;;;;;;7.10;4.82;;;;;;;0.01;0.00;59042.03;10314730;28;20303;-61